Time,TemperatureF,DewpointF,PressureIn,WindDirection,WindDirectionDegrees,WindSpeedMPH,WindSpeedGustMPH,Humidity,HourlyPrecipIn,Conditions,Clouds,dailyrainin,SoftwareType,DateUTC
2013-05-13 00:01:00,37.0,18.0,-100.00,SSE,165,2.0,4.0,45,0.00,,,-99.99,,2013-05-13 06:01:00,
2013-05-13 00:11:00,38.0,18.0,-100.00,SSE,165,2.0,4.0,43,0.00,,,-99.99,,2013-05-13 06:11:00,
2013-05-13 00:21:00,38.0,18.0,-100.00,East,100,1.0,2.0,43,0.00,,,-99.99,,2013-05-13 06:21:00,
2013-05-13 00:31:00,38.0,18.0,-100.00,SSE,165,0.0,2.0,44,0.00,,,-99.99,,2013-05-13 06:31:00,
2013-05-13 00:42:00,38.0,19.0,-100.00,NE,45,1.0,3.0,44,0.00,,,-99.99,,2013-05-13 06:42:00,
2013-05-13 00:52:00,38.0,18.0,-100.00,South,180,1.0,3.0,44,0.00,,,-99.99,,2013-05-13 06:52:00,
2013-05-13 01:01:00,37.0,18.0,-100.00,SSW,200,1.0,2.0,45,0.00,,,-99.99,,2013-05-13 07:01:00,
2013-05-13 01:11:00,37.0,18.0,-100.00,SSE,150,4.0,6.0,46,0.00,,,-99.99,,2013-05-13 07:11:00,
2013-05-13 01:22:00,36.0,18.0,-100.00,SSE,165,4.0,6.0,48,0.00,,,-99.99,,2013-05-13 07:22:00,
2013-05-13 01:31:00,36.0,19.0,-100.00,SE,135,2.0,4.0,48,0.00,,,-99.99,,2013-05-13 07:31:00,
2013-05-13 01:41:00,37.0,19.0,-100.00,SSE,155,1.0,4.0,46,0.00,,,-99.99,,2013-05-13 07:41:00,
2013-05-13 01:52:00,37.0,18.0,-100.00,South,190,3.0,4.0,46,0.00,,,-99.99,,2013-05-13 07:52:00,
2013-05-13 02:02:00,37.0,19.0,-100.00,SSE,150,3.0,6.0,46,0.00,,,-99.99,,2013-05-13 08:02:00,
2013-05-13 02:11:00,37.0,18.0,-100.00,South,170,2.0,4.0,47,0.00,,,-99.99,,2013-05-13 08:11:00,
2013-05-13 02:21:00,38.0,19.0,-100.00,NE,40,2.0,5.0,45,0.00,,,-99.99,,2013-05-13 08:21:00,
2013-05-13 02:31:00,39.0,20.0,-100.00,NNE,20,2.0,7.0,44,0.00,,,-99.99,,2013-05-13 08:31:00,
2013-05-13 02:42:00,40.0,20.0,-100.00,North,10,4.0,7.0,43,0.00,,,-99.99,,2013-05-13 08:42:00,
2013-05-13 02:51:00,37.0,18.0,-100.00,SSE,165,4.0,4.0,46,0.00,,,-99.99,,2013-05-13 08:51:00,
2013-05-13 03:01:00,36.0,18.0,-100.00,South,170,4.0,6.0,47,0.00,,,-99.99,,2013-05-13 09:01:00,
2013-05-13 03:11:00,36.0,19.0,-100.00,SSE,160,4.0,7.0,48,0.00,,,-99.99,,2013-05-13 09:11:00,
2013-05-13 03:21:00,37.0,19.0,-100.00,South,175,5.0,6.0,48,0.00,,,-99.99,,2013-05-13 09:21:00,
2013-05-13 03:33:00,36.0,19.0,-100.00,South,175,4.0,7.0,48,0.00,,,-99.99,,2013-05-13 09:33:00,
2013-05-13 03:42:00,37.0,19.0,-100.00,South,185,4.0,6.0,48,0.00,,,-99.99,,2013-05-13 09:42:00,
2013-05-13 03:52:00,37.0,19.0,-100.00,South,185,4.0,6.0,48,0.00,,,-99.99,,2013-05-13 09:52:00,
2013-05-13 04:03:00,36.0,19.0,-100.00,ENE,60,1.0,6.0,49,0.00,,,-99.99,,2013-05-13 10:03:00,
2013-05-13 04:12:00,36.0,19.0,-100.00,ESE,115,1.0,3.0,49,0.00,,,-99.99,,2013-05-13 10:12:00,
2013-05-13 04:22:00,37.0,19.0,-100.00,NNW,340,2.0,6.0,49,0.00,,,-99.99,,2013-05-13 10:22:00,
2013-05-13 04:32:00,38.0,20.0,-100.00,NE,35,4.0,6.0,47,0.00,,,-99.99,,2013-05-13 10:32:00,
2013-05-13 04:42:00,39.0,21.0,-100.00,NNW,340,6.0,9.0,47,0.00,,,-99.99,,2013-05-13 10:42:00,
2013-05-13 04:52:00,37.0,19.0,-100.00,NNW,330,6.0,9.0,48,0.00,,,-99.99,,2013-05-13 10:52:00,
2013-05-13 05:02:00,38.0,20.0,-100.00,North,10,3.0,8.0,47,0.00,,,-99.99,,2013-05-13 11:02:00,
2013-05-13 05:12:00,39.0,21.0,-100.00,North,0,2.0,7.0,46,0.00,,,-99.99,,2013-05-13 11:12:00,
2013-05-13 05:21:00,39.0,20.0,-100.00,NE,50,0.0,6.0,46,0.00,,,-99.99,,2013-05-13 11:21:00,
2013-05-13 05:32:00,37.0,20.0,-100.00,South,185,3.0,4.0,47,0.00,,,-99.99,,2013-05-13 11:32:00,
2013-05-13 05:42:00,37.0,19.0,-100.00,SE,125,3.0,6.0,49,0.00,,,-99.99,,2013-05-13 11:42:00,
2013-05-13 05:52:00,36.0,19.0,-100.00,SSE,160,2.0,4.0,49,0.00,,,-99.99,,2013-05-13 11:52:00,
2013-05-13 06:01:00,36.0,19.0,-100.00,SSE,155,3.0,5.0,50,0.00,,,-99.99,,2013-05-13 12:01:00,
2013-05-13 06:11:00,36.0,19.0,-100.00,South,175,3.0,4.0,50,0.00,,,-99.99,,2013-05-13 12:11:00,
2013-05-13 06:21:00,36.0,20.0,-100.00,SE,145,2.0,4.0,50,0.00,,,-99.99,,2013-05-13 12:21:00,
2013-05-13 06:32:00,38.0,21.0,-100.00,NNW,335,2.0,5.0,49,0.00,,,-99.99,,2013-05-13 12:32:00,
2013-05-13 06:42:00,38.0,20.0,-100.00,South,190,0.0,4.0,49,0.00,,,-99.99,,2013-05-13 12:42:00,
2013-05-13 06:51:00,37.0,20.0,-100.00,ENE,70,0.0,3.0,50,0.00,,,-99.99,,2013-05-13 12:51:00,
2013-05-13 07:01:00,37.0,21.0,-100.00,SE,135,2.0,5.0,50,0.00,,,-99.99,,2013-05-13 13:01:00,
2013-05-13 07:11:00,38.0,21.0,-100.00,SSE,150,2.0,3.0,49,0.00,,,-99.99,,2013-05-13 13:11:00,
2013-05-13 07:21:00,39.0,21.0,-100.00,South,170,2.0,4.0,49,0.00,,,-99.99,,2013-05-13 13:21:00,
2013-05-13 07:31:00,39.0,21.0,-100.00,South,170,4.0,4.0,48,0.00,,,-99.99,,2013-05-13 13:31:00,
2013-05-13 07:42:00,40.0,22.0,-100.00,South,180,4.0,5.0,48,0.00,,,-99.99,,2013-05-13 13:42:00,
2013-05-13 07:52:00,39.0,22.0,-100.00,SSE,165,7.0,9.0,48,0.00,,,-99.99,,2013-05-13 13:52:00,
2013-05-13 08:02:00,39.0,22.0,-100.00,SSE,155,7.0,7.0,49,0.00,,,-99.99,,2013-05-13 14:02:00,
2013-05-13 08:11:00,39.0,22.0,-100.00,SSE,155,7.0,8.0,49,0.00,,,-99.99,,2013-05-13 14:11:00,
2013-05-13 08:22:00,41.0,23.0,-100.00,SSE,155,6.0,7.0,48,0.00,,,-99.99,,2013-05-13 14:22:00,
2013-05-13 08:32:00,41.0,23.0,-100.00,SE,145,4.0,6.0,48,0.00,,,-99.99,,2013-05-13 14:32:00,
2013-05-13 08:41:00,42.0,24.0,-100.00,SSE,155,3.0,4.0,46,0.00,,,-99.99,,2013-05-13 14:41:00,
2013-05-13 08:51:00,44.0,24.0,-100.00,SSE,165,4.0,6.0,45,0.00,,,-99.99,,2013-05-13 14:51:00,
2013-05-13 09:01:00,44.0,24.0,-100.00,SSE,155,7.0,8.0,45,0.00,,,-99.99,,2013-05-13 15:01:00,
2013-05-13 09:11:00,44.0,24.0,-100.00,SSE,165,7.0,9.0,45,0.00,,,-99.99,,2013-05-13 15:11:00,
2013-05-13 09:21:00,45.0,25.0,-100.00,SSE,165,6.0,9.0,45,0.00,,,-99.99,,2013-05-13 15:21:00,
2013-05-13 09:31:00,48.0,26.0,-100.00,SSE,150,3.0,6.0,42,0.00,,,-99.99,,2013-05-13 15:31:00,
2013-05-13 09:42:00,48.0,26.0,-100.00,SSE,165,2.0,6.0,41,0.00,,,-99.99,,2013-05-13 15:42:00,
2013-05-13 09:53:00,50.0,27.0,-100.00,South,170,4.0,6.0,39,0.00,,,-99.99,,2013-05-13 15:53:00,
2013-05-13 10:03:00,49.0,26.0,-100.00,South,180,4.0,9.0,39,0.00,,,-99.99,,2013-05-13 16:03:00,
2013-05-13 10:11:00,51.0,27.0,-100.00,South,170,3.0,4.0,38,0.00,,,-99.99,,2013-05-13 16:11:00,
2013-05-13 10:21:00,52.0,27.0,-100.00,SSE,165,2.0,7.0,37,0.00,,,-99.99,,2013-05-13 16:21:00,
2013-05-13 10:33:00,49.0,25.0,-100.00,South,170,6.0,9.0,39,0.00,,,-99.99,,2013-05-13 16:33:00,
2013-05-13 10:42:00,49.0,26.0,-100.00,South,170,5.0,9.0,38,0.00,,,-99.99,,2013-05-13 16:42:00,
2013-05-13 10:52:00,49.0,26.0,-100.00,SE,145,6.0,9.0,39,0.00,,,-99.99,,2013-05-13 16:52:00,
2013-05-13 11:02:00,49.0,25.0,-100.00,SSE,165,4.0,9.0,38,0.00,,,-99.99,,2013-05-13 17:02:00,
2013-05-13 11:12:00,51.0,26.0,-100.00,SSE,160,6.0,10.0,38,0.00,,,-99.99,,2013-05-13 17:12:00,
2013-05-13 11:21:00,51.0,26.0,-100.00,SSE,160,6.0,10.0,38,0.00,,,-99.99,,2013-05-13 17:21:00,
2013-05-13 11:32:00,51.0,26.0,-100.00,SSE,160,6.0,10.0,38,0.00,,,-99.99,,2013-05-13 17:32:00,
2013-05-13 11:42:00,51.0,26.0,-100.00,SSE,160,6.0,10.0,38,0.00,,,-99.99,,2013-05-13 17:42:00,